createdAt,value
2023-04-15T00:02:00.295Z,18.90
2023-04-15T00:04:28.676Z,14.80
2023-04-15T00:06:57.560Z,22.10
2023-04-15T00:09:25.752Z,16.10
2023-04-15T00:11:54.430Z,15.70
2023-04-15T00:14:28.268Z,17.60
2023-04-15T00:16:57.431Z,12.70
2023-04-15T00:19:25.951Z,15.10
2023-04-15T00:21:58.590Z,14.70
2023-04-15T00:24:26.776Z,14.70
2023-04-15T00:26:54.938Z,16.40
2023-04-15T00:29:29.896Z,16.90
2023-04-15T00:31:58.482Z,22.50
2023-04-15T00:34:27.948Z,14.90
2023-04-15T00:36:55.970Z,19.70
2023-04-15T00:39:24.668Z,17.10
2023-04-15T00:41:52.977Z,17.60
2023-04-15T00:44:21.144Z,17.30
2023-04-15T00:46:51.073Z,18.30
2023-04-15T00:49:19.586Z,16.80
2023-04-15T00:51:47.937Z,16.10
2023-04-15T00:54:16.335Z,15.70
2023-04-15T00:56:44.921Z,16.10
2023-04-15T00:59:14.614Z,18.20
2023-04-15T01:01:42.764Z,15.40
2023-04-15T01:04:12.426Z,14.50
2023-04-15T01:06:41.242Z,14.60
2023-04-15T01:09:09.650Z,15.40
2023-04-15T01:11:41.555Z,14.50
2023-04-15T01:14:10.921Z,12.60
2023-04-15T01:16:39.927Z,14.30
2023-04-15T01:19:11.404Z,13.60
2023-04-15T01:21:39.891Z,13.10
2023-04-15T01:24:09.821Z,13.10
2023-04-15T01:26:38.601Z,11.90
2023-04-15T01:31:38.037Z,12.70
2023-04-15T01:34:08.613Z,11.10
2023-04-15T01:36:37.003Z,13.20
2023-04-15T01:39:08.453Z,11.10
2023-04-15T01:41:37.453Z,13.20
2023-04-15T01:44:06.051Z,11.20
2023-04-15T01:46:34.703Z,9.40
2023-04-15T01:49:03.113Z,8.90
2023-04-15T01:51:33.277Z,7.00
2023-04-15T01:54:01.658Z,8.10
2023-04-15T01:56:33.533Z,9.20
2023-04-15T01:59:03.987Z,12.10
2023-04-15T02:01:32.230Z,9.10
2023-04-15T02:04:01.921Z,10.70
2023-04-15T02:06:33.367Z,9.10
2023-04-15T02:09:04.960Z,7.80
2023-04-15T02:11:35.365Z,11.60
2023-04-15T02:14:05.932Z,11.50
2023-04-15T02:16:34.529Z,8.80
2023-04-15T02:19:04.947Z,7.50
2023-04-15T02:21:35.499Z,7.30
2023-04-15T02:24:04.599Z,6.90
2023-04-15T02:26:37.743Z,6.00
2023-04-15T02:29:07.129Z,7.60
2023-04-15T02:31:40.432Z,5.70
2023-04-15T02:34:14.180Z,7.30
2023-04-15T02:36:44.413Z,6.50
2023-04-15T02:39:14.948Z,5.10
2023-04-15T02:41:47.648Z,9.60
2023-04-15T02:44:15.959Z,5.50
2023-04-15T02:46:44.864Z,4.70
2023-04-15T02:49:17.335Z,6.40
2023-04-15T02:51:49.851Z,5.80
2023-04-15T02:54:22.880Z,7.30
2023-04-15T02:56:55.268Z,6.00
2023-04-15T03:01:51.864Z,5.40
2023-04-15T03:04:20.461Z,5.80
2023-04-15T03:06:52.185Z,9.00
2023-04-15T03:09:21.085Z,8.10
2023-04-15T03:11:49.801Z,7.10
2023-04-15T03:14:17.967Z,8.80
2023-04-15T03:16:48.084Z,7.40
2023-04-15T03:19:16.787Z,6.60
2023-04-15T03:21:44.957Z,9.00
2023-04-15T03:24:14.084Z,7.50
2023-04-15T03:26:42.656Z,7.80
2023-04-15T03:29:13.421Z,9.30
2023-04-15T03:31:42.192Z,8.20
2023-04-15T03:34:10.187Z,10.40
2023-04-15T03:36:38.784Z,8.10
2023-04-15T03:39:08.183Z,8.30
2023-04-15T03:41:36.890Z,8.30
2023-04-15T03:44:05.889Z,8.60
2023-04-15T03:46:34.503Z,7.40
2023-04-15T03:49:02.990Z,11.10
2023-04-15T03:51:32.752Z,8.50
2023-04-15T03:54:00.906Z,7.80
2023-04-15T03:56:29.220Z,8.90
2023-04-15T03:58:57.462Z,9.10
2023-04-15T04:01:25.666Z,9.20
2023-04-15T04:03:53.880Z,10.30
2023-04-15T04:06:23.028Z,9.30
2023-04-15T04:08:53.284Z,9.00
2023-04-15T04:11:21.547Z,9.80
2023-04-15T04:13:55.065Z,7.70
2023-04-15T04:16:26.164Z,6.90
2023-04-15T04:18:54.933Z,7.40
2023-04-15T04:21:23.321Z,7.50
2023-04-15T04:23:54.165Z,7.70
2023-04-15T04:26:22.958Z,9.60
2023-04-15T04:28:51.281Z,6.80
2023-04-15T04:31:19.958Z,8.40
2023-04-15T04:33:49.449Z,11.20
2023-04-15T04:36:17.560Z,6.60
2023-04-15T04:42:27.447Z,7.60
2023-04-15T04:44:55.938Z,7.90
2023-04-15T04:47:22.731Z,7.90
2023-04-15T04:49:49.928Z,8.00
2023-04-15T04:52:18.591Z,8.70
2023-04-15T04:54:46.811Z,7.50
2023-04-15T04:57:13.436Z,7.20
2023-04-15T04:59:40.852Z,7.30
2023-04-15T05:02:07.940Z,9.20
2023-04-15T05:04:34.809Z,6.20
2023-04-15T05:07:05.656Z,8.30
2023-04-15T05:09:35.559Z,8.10
2023-04-15T05:12:03.767Z,7.20
2023-04-15T05:14:31.678Z,8.10
2023-04-15T05:17:02.790Z,10.40
2023-04-15T05:19:30.221Z,7.20
2023-04-15T05:21:57.113Z,12.50
2023-04-15T05:24:24.184Z,10.30
2023-04-15T05:26:51.692Z,9.30
2023-04-15T05:29:18.465Z,9.00
2023-04-15T05:31:45.493Z,9.10
2023-04-15T05:34:12.412Z,8.20
2023-04-15T05:36:39.817Z,9.30
2023-04-15T05:39:06.656Z,9.20
2023-04-15T05:41:33.962Z,8.50
2023-04-15T05:44:03.713Z,8.10
2023-04-15T05:46:35.648Z,9.10
2023-04-15T05:49:03.953Z,10.80
2023-04-15T05:51:31.672Z,3.50
2023-04-15T05:56:30.118Z,3.50
2023-04-15T05:58:57.061Z,2.70
2023-04-15T06:01:30.576Z,2.30
2023-04-15T06:03:57.487Z,2.60
2023-04-15T06:06:24.608Z,2.80
2023-04-15T06:08:51.664Z,3.90
2023-04-15T06:11:20.720Z,5.20
2023-04-15T06:13:47.351Z,3.20
2023-04-15T06:16:14.201Z,3.50
2023-04-15T06:18:41.271Z,7.50
2023-04-15T06:21:08.082Z,3.20
2023-04-15T06:23:35.874Z,7.30
2023-04-15T06:26:03.184Z,5.90
2023-04-15T06:28:30.870Z,4.90
2023-04-15T06:30:57.707Z,4.30
2023-04-15T06:33:24.922Z,3.20
2023-04-15T06:35:53.478Z,3.30
2023-04-15T06:38:23.451Z,2.20
2023-04-15T06:40:51.122Z,2.50
2023-04-15T06:43:17.894Z,2.70
2023-04-15T06:45:51.890Z,3.60
2023-04-15T06:48:18.975Z,3.00
2023-04-15T06:50:45.774Z,3.50
2023-04-15T06:53:15.575Z,2.90
2023-04-15T06:55:43.789Z,3.10
2023-04-15T06:58:10.418Z,3.80
2023-04-15T07:00:38.609Z,4.50
2023-04-15T07:03:05.640Z,3.40
2023-04-15T07:05:32.908Z,3.80
2023-04-15T07:08:06.118Z,5.70
2023-04-15T07:10:33.710Z,3.40
2023-04-15T07:13:01.318Z,2.80
2023-04-15T07:15:29.267Z,3.50
2023-04-15T07:17:57.626Z,3.30
2023-04-15T07:20:25.326Z,3.00
2023-04-15T07:22:52.591Z,3.10
2023-04-15T07:25:20.079Z,4.20
2023-04-15T07:27:47.077Z,3.70
2023-04-15T07:30:14.074Z,4.50
2023-04-15T07:32:41.936Z,4.70
2023-04-15T07:35:09.934Z,4.20
2023-04-15T07:37:37.447Z,2.70
2023-04-15T07:40:06.694Z,3.80
2023-04-15T07:42:36.126Z,3.80
2023-04-15T07:45:03.380Z,4.60
2023-04-15T07:47:32.654Z,3.20
2023-04-15T07:50:01.937Z,3.00
2023-04-15T07:52:28.811Z,4.50
2023-04-15T07:54:55.946Z,6.50
2023-04-15T07:57:28.030Z,6.60
2023-04-15T07:59:55.924Z,4.90
2023-04-15T08:02:23.601Z,5.10
2023-04-15T08:04:50.483Z,3.90
2023-04-15T08:09:49.004Z,5.80
2023-04-15T08:12:16.426Z,4.10
2023-04-15T08:14:44.477Z,4.20
2023-04-15T08:17:12.681Z,5.70
2023-04-15T08:19:40.170Z,3.40
2023-04-15T08:22:10.427Z,3.60
2023-04-15T08:24:47.777Z,5.70
2023-04-15T08:27:14.776Z,3.90
2023-04-15T08:29:44.698Z,4.00
2023-04-15T08:32:12.018Z,3.90
2023-04-15T08:34:40.218Z,6.00
2023-04-15T08:37:07.584Z,4.70
2023-04-15T08:39:34.524Z,3.50
2023-04-15T08:42:02.839Z,4.60
2023-04-15T08:44:31.382Z,6.80
2023-04-15T08:47:01.051Z,3.80
2023-04-15T08:49:28.543Z,3.50
2023-04-15T08:51:58.018Z,4.20
2023-04-15T08:54:27.809Z,3.40
2023-04-15T08:56:59.729Z,4.90
2023-04-15T08:59:26.418Z,3.20
2023-04-15T09:01:54.678Z,4.60
2023-04-15T09:04:22.483Z,4.00
2023-04-15T09:06:51.595Z,3.70
2023-04-15T09:09:18.234Z,4.90
2023-04-15T09:11:46.784Z,6.00
2023-04-15T09:14:13.719Z,5.20
2023-04-15T09:17:04.004Z,7.40
2023-04-15T09:19:32.798Z,6.50
2023-04-15T09:21:59.613Z,5.60
2023-04-15T09:24:35.470Z,4.70
2023-04-15T09:27:03.010Z,3.60
2023-04-15T09:29:29.826Z,4.50
2023-04-15T09:31:56.544Z,6.00
2023-04-15T09:34:34.378Z,4.70
2023-04-15T09:37:01.475Z,4.00
2023-04-15T09:39:44.580Z,4.30
2023-04-15T09:42:11.234Z,4.10
2023-04-15T09:44:38.429Z,3.30
2023-04-15T09:47:05.275Z,3.10
2023-04-15T09:49:32.662Z,10.00
2023-04-15T09:52:07.139Z,4.90
2023-04-15T09:54:35.634Z,3.50
2023-04-15T09:57:09.437Z,4.30
2023-04-15T09:59:36.102Z,3.90
2023-04-15T10:02:04.775Z,3.50
2023-04-15T10:04:33.946Z,4.00
2023-04-15T10:07:01.448Z,3.80
2023-04-15T10:09:28.121Z,3.60
2023-04-15T10:11:55.547Z,5.50
2023-04-15T10:14:23.120Z,3.00
2023-04-15T10:16:49.882Z,3.90
2023-04-15T10:19:18.153Z,4.00
2023-04-15T10:21:44.893Z,5.00
2023-04-15T10:24:11.535Z,2.70
2023-04-15T10:26:39.371Z,5.50
2023-04-15T10:29:06.106Z,4.10
2023-04-15T10:31:33.350Z,3.70
2023-04-15T10:34:05.658Z,3.40
2023-04-15T10:36:32.792Z,2.40
2023-04-15T10:38:59.712Z,4.50
2023-04-15T10:41:29.366Z,2.90
2023-04-15T10:44:05.533Z,2.90
2023-04-15T10:46:40.264Z,4.40
2023-04-15T10:49:11.698Z,3.10
2023-04-15T10:54:23.856Z,2.90
2023-04-15T10:59:17.587Z,4.60
2023-04-15T11:01:59.459Z,2.70
2023-04-15T11:04:55.508Z,2.70
2023-04-15T11:07:40.897Z,3.40
2023-04-15T11:10:17.970Z,4.80
2023-04-15T11:12:45.519Z,6.20
2023-04-15T11:15:36.183Z,6.30
2023-04-15T11:18:12.208Z,3.50
2023-04-15T11:20:40.973Z,2.70
2023-04-15T11:23:15.321Z,2.00
2023-04-15T11:25:42.604Z,1.40
2023-04-15T11:28:09.898Z,2.20
2023-04-15T11:30:37.021Z,3.90
2023-04-15T11:33:05.169Z,2.60
2023-04-15T11:35:32.787Z,3.20
2023-04-15T11:38:03.642Z,4.60
2023-04-15T11:40:31.068Z,7.60
2023-04-15T11:43:07.975Z,5.30
2023-04-15T11:45:36.313Z,2.60
2023-04-15T11:48:06.351Z,4.60
2023-04-15T11:50:33.889Z,3.50
2023-04-15T11:53:02.696Z,4.30
2023-04-15T11:55:29.711Z,2.90
2023-04-15T11:58:07.549Z,2.70
2023-04-15T12:00:34.549Z,2.00
2023-04-15T12:03:24.199Z,1.40
2023-04-15T12:06:07.410Z,3.90
2023-04-15T12:08:53.769Z,2.70
2023-04-15T12:11:26.833Z,4.50
2023-04-15T12:14:05.632Z,7.00
2023-04-15T12:16:37.265Z,3.90
2023-04-15T12:19:25.310Z,3.50
2023-04-15T12:21:53.660Z,3.30
2023-04-15T12:24:22.242Z,3.70
2023-04-15T12:26:51.242Z,4.20
2023-04-15T12:29:18.255Z,3.90
2023-04-15T12:32:12.410Z,3.30
2023-04-15T12:34:52.590Z,5.60
2023-04-15T12:37:19.633Z,3.90
2023-04-15T12:39:50.770Z,3.70
2023-04-15T12:42:17.994Z,3.30
2023-04-15T12:44:45.077Z,3.40
2023-04-15T12:54:57.000Z,4.30
2023-04-15T12:57:25.261Z,4.60
2023-04-15T12:59:53.670Z,4.50
2023-04-15T13:02:25.815Z,4.50
2023-04-15T13:04:54.260Z,5.10
2023-04-15T13:07:22.472Z,4.90
2023-04-15T13:09:52.099Z,9.40
2023-04-15T13:12:20.667Z,6.00
2023-04-15T13:14:48.851Z,5.20
2023-04-15T13:17:20.432Z,7.40
2023-04-15T13:19:48.845Z,5.60
2023-04-15T13:22:17.640Z,8.70
2023-04-15T13:24:46.325Z,7.60
2023-04-15T13:27:15.706Z,6.30
2023-04-15T13:29:44.150Z,6.50
2023-04-15T13:32:12.323Z,8.70
2023-04-15T13:34:40.515Z,7.90
2023-04-15T13:37:09.226Z,9.30
2023-04-15T13:39:37.554Z,6.20
2023-04-15T13:42:05.737Z,8.40
2023-04-15T13:44:33.930Z,5.60
2023-04-15T13:47:02.351Z,6.60
2023-04-15T13:49:30.939Z,5.20
2023-04-15T13:51:59.026Z,11.30
2023-04-15T13:54:37.460Z,5.80
2023-04-15T13:57:06.545Z,7.60
2023-04-15T13:59:35.035Z,5.70
2023-04-15T14:02:03.225Z,8.40
2023-04-15T14:04:32.124Z,5.90
2023-04-15T14:07:01.204Z,8.30
2023-04-15T14:09:30.635Z,5.00
2023-04-15T14:12:00.184Z,5.70
2023-04-15T14:14:28.468Z,9.00
2023-04-15T14:16:57.259Z,9.80
2023-04-15T14:19:26.670Z,4.80
2023-04-15T14:21:54.744Z,4.80
2023-04-15T14:24:22.922Z,5.00
2023-04-15T14:26:51.352Z,5.70
2023-04-15T14:29:20.012Z,6.80
2023-04-15T14:32:04.063Z,5.20
2023-04-15T14:34:38.047Z,5.70
2023-04-15T14:37:06.480Z,4.90
2023-04-15T14:39:34.730Z,5.80
2023-04-15T14:42:03.316Z,4.90
2023-04-15T14:44:32.392Z,5.50
2023-04-15T14:47:00.914Z,5.80
2023-04-15T14:49:30.544Z,6.50
2023-04-15T14:51:58.672Z,3.60
2023-04-15T14:54:26.857Z,3.60
2023-04-15T14:56:56.380Z,3.00
2023-04-15T14:59:24.381Z,4.20
2023-04-15T15:01:52.931Z,3.80
2023-04-15T15:04:21.138Z,3.30
2023-04-15T15:06:49.418Z,2.60
2023-04-15T15:09:19.818Z,4.80
2023-04-15T15:11:47.773Z,3.10
2023-04-15T15:14:15.793Z,11.00
2023-04-15T15:16:44.161Z,5.20
2023-04-15T15:19:12.575Z,4.50
2023-04-15T15:21:40.847Z,2.60
2023-04-15T15:24:09.054Z,2.50
2023-04-15T15:26:37.403Z,4.20
2023-04-15T15:29:06.032Z,7.80
2023-04-15T15:31:35.620Z,1.80
2023-04-15T15:34:04.309Z,2.50
2023-04-15T15:36:32.491Z,2.80
2023-04-15T15:39:00.769Z,4.20
2023-04-15T15:41:28.856Z,4.50
2023-04-15T15:43:56.996Z,5.70
2023-04-15T15:46:25.558Z,4.00
2023-04-15T15:48:53.808Z,4.80
2023-04-15T15:51:22.021Z,2.80
2023-04-15T15:53:50.485Z,9.10
2023-04-15T15:56:18.994Z,9.90
2023-04-15T15:58:47.487Z,4.80
2023-04-15T16:01:16.327Z,6.20
2023-04-15T16:03:44.566Z,2.70
2023-04-15T16:06:12.724Z,7.50
2023-04-15T16:08:41.110Z,5.10
2023-04-15T16:11:09.226Z,4.20
2023-04-15T16:13:37.231Z,6.50
2023-04-15T16:16:05.793Z,4.00
2023-04-15T16:18:35.271Z,3.10
2023-04-15T16:21:03.526Z,5.10
2023-04-15T16:23:32.002Z,8.40
2023-04-15T16:26:00.196Z,4.40
2023-04-15T16:28:28.285Z,5.40
2023-04-15T16:30:57.157Z,5.20
2023-04-15T16:33:25.727Z,5.00
2023-04-15T16:35:53.794Z,8.60
2023-04-15T16:38:22.739Z,7.10
2023-04-15T16:40:51.611Z,8.20
2023-04-15T16:43:20.129Z,13.70
2023-04-15T16:45:51.059Z,7.40
2023-04-15T16:48:20.204Z,11.40
2023-04-15T16:50:49.121Z,10.20
2023-04-15T16:53:17.393Z,8.80
2023-04-15T16:55:45.785Z,10.00
2023-04-15T16:59:54.435Z,8.80
2023-04-15T17:02:23.114Z,15.70
2023-04-15T17:04:51.314Z,7.90
2023-04-15T17:07:19.410Z,8.00
2023-04-15T17:09:49.143Z,10.40
2023-04-15T17:12:17.626Z,5.80
2023-04-15T17:14:46.487Z,4.60
2023-04-15T17:17:14.797Z,5.70
2023-04-15T17:19:42.900Z,5.70
2023-04-15T17:22:11.010Z,8.10
2023-04-15T17:24:39.444Z,6.30
2023-04-15T17:27:07.747Z,8.00
2023-04-15T17:29:36.128Z,4.10
2023-04-15T17:32:05.195Z,6.80
2023-04-15T17:34:50.253Z,5.70
2023-04-15T17:37:20.395Z,8.80
2023-04-15T17:39:48.656Z,7.60
2023-04-15T17:42:16.918Z,6.60
2023-04-15T17:44:45.807Z,7.00
2023-04-15T17:47:13.906Z,6.20
2023-04-15T17:49:42.036Z,4.70
2023-04-15T17:52:11.397Z,5.20
2023-04-15T17:54:39.475Z,10.40
2023-04-15T17:57:09.409Z,5.70
2023-04-15T17:59:37.512Z,9.90
2023-04-15T18:02:06.133Z,8.70
2023-04-15T18:04:34.476Z,7.10
2023-04-15T18:07:03.223Z,7.30
2023-04-15T18:09:33.267Z,6.50
2023-04-15T18:12:02.177Z,10.70
2023-04-15T18:14:34.758Z,12.40
2023-04-15T18:17:03.422Z,11.50
2023-04-15T18:19:32.154Z,9.90
2023-04-15T18:22:00.723Z,31.30
2023-04-15T18:24:30.053Z,7.20
2023-04-15T18:26:59.189Z,11.40
2023-04-15T18:29:27.376Z,6.60
2023-04-15T18:31:57.020Z,5.90
2023-04-15T18:34:25.182Z,13.00
2023-04-15T18:36:53.537Z,7.00
2023-04-15T18:39:22.248Z,6.30
2023-04-15T18:41:50.434Z,7.20
2023-04-15T18:44:18.745Z,7.20
2023-04-15T18:46:48.662Z,6.80
2023-04-15T18:49:16.670Z,8.20
2023-04-15T18:51:44.742Z,8.20
2023-04-15T18:54:12.934Z,7.50
2023-04-15T18:56:42.329Z,7.70
2023-04-15T18:59:29.325Z,8.90
2023-04-15T19:01:59.380Z,11.00
2023-04-15T19:04:29.375Z,12.60
2023-04-15T19:06:59.057Z,10.00
2023-04-15T19:09:28.929Z,9.20
2023-04-15T19:11:57.672Z,8.10
2023-04-15T19:14:26.036Z,10.80
2023-04-15T19:16:54.358Z,10.70
2023-04-15T19:19:22.669Z,11.30
2023-04-15T19:21:50.936Z,11.10
2023-04-15T19:24:19.749Z,11.00
2023-04-15T19:26:49.980Z,14.30
2023-04-15T19:29:18.375Z,14.70
2023-04-15T19:31:46.476Z,10.60
2023-04-15T19:34:14.760Z,8.50
2023-04-15T19:36:43.161Z,13.00
2023-04-15T19:39:11.746Z,11.10
2023-04-15T19:41:40.088Z,13.70
2023-04-15T19:44:08.137Z,15.60
2023-04-15T19:46:36.583Z,12.60
2023-04-15T19:49:05.204Z,12.00
2023-04-15T19:51:33.482Z,17.00
2023-04-15T19:54:01.746Z,10.70
2023-04-15T19:56:31.739Z,16.60
2023-04-15T19:59:02.340Z,11.20
2023-04-15T20:01:30.683Z,11.80
2023-04-15T20:03:59.725Z,21.10
2023-04-15T20:06:29.087Z,277.00
2023-04-15T20:08:58.082Z,237.90
2023-04-15T20:12:48.079Z,11.00
2023-04-15T20:14:17.875Z,15.80
2023-04-15T20:16:46.061Z,14.70
2023-04-15T20:19:14.680Z,20.90
2023-04-15T20:21:43.371Z,12.70
2023-04-15T20:24:11.409Z,16.30
2023-04-15T20:26:39.513Z,13.70
2023-04-15T20:29:07.919Z,16.80
2023-04-15T20:31:38.271Z,15.00
2023-04-15T20:34:06.466Z,16.10
2023-04-15T20:36:34.716Z,13.80
2023-04-15T20:39:02.958Z,15.30
2023-04-15T20:41:31.517Z,15.10
2023-04-15T20:43:59.900Z,12.10
2023-04-15T20:46:28.310Z,15.60
2023-04-15T20:48:56.695Z,10.80
2023-04-15T20:51:25.274Z,9.80
2023-04-15T20:53:53.267Z,18.30
2023-04-15T20:56:21.339Z,21.40
2023-04-15T20:58:49.391Z,15.10
2023-04-15T21:01:17.347Z,22.80
2023-04-15T21:03:45.801Z,29.10
2023-04-15T21:06:14.074Z,26.70
2023-04-15T21:08:42.257Z,25.00
2023-04-15T21:11:11.079Z,18.50
2023-04-15T21:13:39.561Z,18.90
2023-04-15T21:16:07.747Z,18.00
2023-04-15T21:18:36.211Z,16.00
2023-04-15T21:21:05.476Z,19.30
2023-04-15T21:23:35.991Z,29.50
2023-04-15T21:26:04.169Z,27.20
2023-04-15T21:28:33.280Z,27.20
2023-04-15T21:31:01.834Z,22.80
2023-04-15T21:33:30.349Z,14.70
2023-04-15T21:35:58.605Z,18.00
2023-04-15T21:38:26.821Z,18.70
2023-04-15T21:40:55.334Z,18.10
2023-04-15T21:43:25.857Z,14.90
2023-04-15T21:46:22.012Z,21.10
2023-04-15T21:48:42.050Z,23.30
2023-04-15T21:51:10.257Z,23.90
2023-04-15T21:53:39.471Z,23.60
2023-04-15T21:56:11.185Z,23.20
2023-04-15T21:58:39.286Z,28.20
2023-04-15T22:01:07.545Z,27.40
2023-04-15T22:03:36.277Z,25.40
2023-04-15T22:06:04.518Z,29.80
2023-04-15T22:08:38.725Z,32.80
2023-04-15T22:11:26.219Z,28.00
2023-04-15T22:13:54.446Z,24.50
2023-04-15T22:16:24.966Z,31.60
2023-04-15T22:18:53.603Z,29.00
2023-04-15T22:21:22.655Z,26.60
2023-04-15T22:23:51.268Z,26.00
2023-04-15T22:26:19.272Z,31.10
2023-04-15T22:28:48.111Z,28.50
2023-04-15T22:31:16.039Z,27.10
2023-04-15T22:33:44.428Z,25.50
2023-04-15T22:36:13.635Z,21.20
2023-04-15T22:38:41.711Z,27.40
2023-04-15T22:41:09.945Z,34.50
2023-04-15T22:43:38.455Z,32.60
2023-04-15T22:46:06.906Z,33.60
2023-04-15T22:48:35.641Z,32.30
2023-04-15T22:51:05.186Z,34.70
2023-04-15T22:53:33.830Z,31.20
2023-04-15T22:56:02.067Z,27.00
2023-04-15T22:58:33.582Z,32.30
2023-04-15T23:01:01.857Z,34.00
2023-04-15T23:03:30.152Z,30.60
2023-04-15T23:05:58.433Z,31.10
2023-04-15T23:08:26.731Z,26.30
2023-04-15T23:10:55.152Z,25.90
2023-04-15T23:13:23.362Z,20.40
2023-04-15T23:15:51.472Z,23.20
2023-04-15T23:18:20.340Z,30.40
2023-04-15T23:20:48.544Z,29.40
2023-04-15T23:23:17.797Z,33.70
2023-04-15T23:25:46.135Z,28.90
2023-04-15T23:28:14.461Z,33.80
2023-04-15T23:30:42.534Z,35.90
2023-04-15T23:33:12.128Z,37.00
2023-04-15T23:35:43.105Z,34.80
2023-04-15T23:38:11.727Z,33.70
2023-04-15T23:40:40.528Z,29.40
2023-04-15T23:43:08.597Z,32.00
2023-04-15T23:45:37.499Z,29.40
2023-04-15T23:48:06.444Z,32.50
2023-04-15T23:50:34.384Z,34.40
2023-04-15T23:53:02.497Z,36.80
2023-04-15T23:55:31.404Z,46.30
2023-04-15T23:57:59.701Z,33.10
